To NAV CANADA Home Page Login to a new session Search on AWWS site Feedback and Comments Disclaimer Vers la page française équivalente Tips FAQ What's new on the site To the Forecasts and Observations / NOTAM section To "File a Flight Plan" website Publications and other links Update of the User's profile FIC Telephone Numbers My Weather Data Folder Route Weather Data Regional Weather Data Local Weather Data To the Forecasts and Observations / NOTAM section
Request Generated 08/28/2016 at 18:51:46 UTC . Weather information available at that time is displayed.

METAR/TAF

LONDON/ON    

METAR CYXU 281800Z 30007KT 12SM FEW017 BKN025 BKN210 27/23 A3019 RMK
CF2CU3CI1 SLP221 DENSITY ALT 2100FT=
METAR CYXU 281700Z 25008KT 8SM FEW009 SCT014 BKN033 BKN180 26/22
A3019 RMK CF1CF3CU1AC2 SLP223 DENSITY ALT 2100FT=
SPECI CYXU 281622Z 26005KT 230V290 6SM BR FEW007 SCT009 BKN033 26/23
A3020 RMK SF1CF3CU2 SLP224 DENSITY ALT 2000FT=
SPECI CYXU 281611Z 27006KT 240V320 6SM BR FEW006 BKN009 BKN030 25/23
A3020 RMK SF2CF3SC1 SLP226 DENSITY ALT 1900FT=
METAR CYXU 281600Z 28006KT 5SM BR FEW006 BKN008 OVC016 24/22 A3020
RMK SF2SF3SC3 SLP226 DENSITY ALT 1700FT=

TAF CYXU 281740Z 2818/2918 27010KT P6SM BKN030 PROB30 2818/2820
VRB15G25KT 1SM +TSRA BR BKN010 OVC030CB
FM282000 31012KT P6SM SCT050
BECMG 2823/2901 36007KT
FM290200 01007KT P6SM SKC PROB30 2908/2913 1/2SM FG VV001
RMK NXT FCST BY 290000Z=
Your time UTC time
Weather data provided by Environment Canada and NAV CANADA